sensor_id;sensor_type;location;lat;lon;timestamp;pressure;altitude;pressure_sealevel;temperature;humidity
76164;BME280;64897;50.816;4.422;2022-11-20T00:01:21;100640.22;;;14.77;65.73
76164;BME280;64897;50.816;4.422;2022-11-20T00:03:49;100629.00;;;14.75;66.09
76164;BME280;64897;50.816;4.422;2022-11-20T00:06:18;100642.00;;;14.76;65.79
76164;BME280;64897;50.816;4.422;2022-11-20T00:08:45;100640.47;;;14.74;65.90
76164;BME280;64897;50.816;4.422;2022-11-20T00:11:20;100639.53;;;14.75;65.59
76164;BME280;64897;50.816;4.422;2022-11-20T00:13:49;100646.59;;;14.74;65.69
76164;BME280;64897;50.816;4.422;2022-11-20T00:16:18;100644.06;;;14.73;65.64
76164;BME280;64897;50.816;4.422;2022-11-20T00:18:46;100643.13;;;14.74;66.06
76164;BME280;64897;50.816;4.422;2022-11-20T00:21:18;100641.44;;;14.73;65.96
76164;BME280;64897;50.816;4.422;2022-11-20T00:23:45;100644.06;;;14.73;65.92
76164;BME280;64897;50.816;4.422;2022-11-20T00:26:15;100641.44;;;14.73;65.42
76164;BME280;64897;50.816;4.422;2022-11-20T00:28:43;100652.09;;;14.71;65.50
76164;BME280;64897;50.816;4.422;2022-11-20T00:31:15;100639.91;;;14.70;66.00
76164;BME280;64897;50.816;4.422;2022-11-20T00:33:43;100639.78;;;14.72;65.92
76164;BME280;64897;50.816;4.422;2022-11-20T00:36:12;100632.84;;;14.71;65.79
76164;BME280;64897;50.816;4.422;2022-11-20T00:38:39;100636.44;;;14.70;65.76
76164;BME280;64897;50.816;4.422;2022-11-20T00:41:09;100635.50;;;14.71;65.97
76164;BME280;64897;50.816;4.422;2022-11-20T00:43:36;100628.56;;;14.70;65.74
76164;BME280;64897;50.816;4.422;2022-11-20T00:46:08;100630.22;;;14.71;65.63
76164;BME280;64897;50.816;4.422;2022-11-20T00:48:35;100633.81;;;14.70;65.71
76164;BME280;64897;50.816;4.422;2022-11-20T00:51:02;100633.81;;;14.70;65.70
76164;BME280;64897;50.816;4.422;2022-11-20T00:53:30;100634.78;;;14.69;65.80
76164;BME280;64897;50.816;4.422;2022-11-20T00:56:02;100631.34;;;14.68;65.22
76164;BME280;64897;50.816;4.422;2022-11-20T00:58:31;100627.84;;;14.68;65.44
76164;BME280;64897;50.816;4.422;2022-11-20T01:01:06;100638.38;;;14.68;65.43
76164;BME280;64897;50.816;4.422;2022-11-20T01:03:38;100633.13;;;14.68;65.22
76164;BME280;64897;50.816;4.422;2022-11-20T01:06:11;100634.78;;;14.69;65.14
76164;BME280;64897;50.816;4.422;2022-11-20T01:08:39;100633.13;;;14.68;65.30
76164;BME280;64897;50.816;4.422;2022-11-20T01:11:12;100636.72;;;14.67;65.45
76164;BME280;64897;50.816;4.422;2022-11-20T01:13:39;100639.34;;;14.67;65.47
76164;BME280;64897;50.816;4.422;2022-11-20T01:16:18;100634.06;;;14.67;65.40
76164;BME280;64897;50.816;4.422;2022-11-20T01:18:47;100635.06;;;14.66;65.21
76164;BME280;64897;50.816;4.422;2022-11-20T01:21:18;100641.97;;;14.67;65.56
76164;BME280;64897;50.816;4.422;2022-11-20T01:23:45;100635.06;;;14.66;65.13
76164;BME280;64897;50.816;4.422;2022-11-20T01:26:16;100634.22;;;14.65;65.55
76164;BME280;64897;50.816;4.422;2022-11-20T01:28:43;100631.72;;;14.64;65.07
76164;BME280;64897;50.816;4.422;2022-11-20T01:31:14;100636.97;;;14.64;65.40
76164;BME280;64897;50.816;4.422;2022-11-20T01:33:41;100635.31;;;14.63;65.24
76164;BME280;64897;50.816;4.422;2022-11-20T01:36:09;100630.75;;;14.65;65.44
76164;BME280;64897;50.816;4.422;2022-11-20T01:38:36;100626.44;;;14.64;65.28
76164;BME280;64897;50.816;4.422;2022-11-20T01:41:03;100631.72;;;14.64;65.11
76164;BME280;64897;50.816;4.422;2022-11-20T01:43:30;100630.91;;;14.63;65.44
76164;BME280;64897;50.816;4.422;2022-11-20T01:46:18;100631.72;;;14.64;65.03
76164;BME280;64897;50.816;4.422;2022-11-20T01:49:04;100635.31;;;14.63;65.27
76164;BME280;64897;50.816;4.422;2022-11-20T01:51:50;100632.81;;;14.61;65.26
76164;BME280;64897;50.816;4.422;2022-11-20T01:54:38;100635.31;;;14.63;65.32
76164;BME280;64897;50.816;4.422;2022-11-20T01:57:07;100632.81;;;14.61;65.39
76164;BME280;64897;50.816;4.422;2022-11-20T01:59:39;100626.72;;;14.61;65.25
76164;BME280;64897;50.816;4.422;2022-11-20T02:02:06;100626.72;;;14.61;65.21
76164;BME280;64897;50.816;4.422;2022-11-20T02:04:33;100626.72;;;14.61;64.87
76164;BME280;64897;50.816;4.422;2022-11-20T02:07:01;100624.09;;;14.61;65.15
76164;BME280;64897;50.816;4.422;2022-11-20T02:09:28;100630.34;;;14.60;64.95
76164;BME280;64897;50.816;4.422;2022-11-20T02:11:55;100627.69;;;14.60;65.34
76164;BME280;64897;50.816;4.422;2022-11-20T02:14:23;100635.72;;;14.58;64.95
76164;BME280;64897;50.816;4.422;2022-11-20T02:16:50;100629.50;;;14.59;64.98
76164;BME280;64897;50.816;4.422;2022-11-20T02:19:30;100640.00;;;14.59;65.28
76164;BME280;64897;50.816;4.422;2022-11-20T02:24:32;100635.84;;;14.57;64.94
76164;BME280;64897;50.816;4.422;2022-11-20T02:27:13;100628.81;;;14.57;65.13
76164;BME280;64897;50.816;4.422;2022-11-20T02:34:49;100628.81;;;14.57;64.86
76164;BME280;64897;50.816;4.422;2022-11-20T02:37:16;100624.34;;;14.58;64.89
76164;BME280;64897;50.816;4.422;2022-11-20T02:39:44;100632.25;;;14.58;65.27
76164;BME280;64897;50.816;4.422;2022-11-20T02:42:12;100613.97;;;14.56;64.74
76164;BME280;64897;50.816;4.422;2022-11-20T02:44:39;100614.81;;;14.57;64.71
76164;BME280;64897;50.816;4.422;2022-11-20T02:47:05;100614.81;;;14.57;65.15
76164;BME280;64897;50.816;4.422;2022-11-20T02:49:32;100615.75;;;14.56;65.28
76164;BME280;64897;50.816;4.422;2022-11-20T02:51:59;100606.94;;;14.57;65.19
76164;BME280;64897;50.816;4.422;2022-11-20T02:54:26;100610.50;;;14.56;65.16
76164;BME280;64897;50.816;4.422;2022-11-20T02:56:53;100613.97;;;14.56;65.21
76164;BME280;64897;50.816;4.422;2022-11-20T02:59:20;100612.19;;;14.57;65.22
76164;BME280;64897;50.816;4.422;2022-11-20T03:01:47;100603.47;;;14.56;65.24
76164;BME280;64897;50.816;4.422;2022-11-20T03:04:13;100600.13;;;14.54;65.29
76164;BME280;64897;50.816;4.422;2022-11-20T03:06:40;100600.00;;;14.56;64.78
76164;BME280;64897;50.816;4.422;2022-11-20T03:09:07;100599.28;;;14.54;64.80
76164;BME280;64897;50.816;4.422;2022-11-20T03:11:33;100587.00;;;14.54;65.28
76164;BME280;64897;50.816;4.422;2022-11-20T03:14:04;100582.69;;;14.53;65.21
76164;BME280;64897;50.816;4.422;2022-11-20T03:16:32;100586.25;;;14.52;65.15
76164;BME280;64897;50.816;4.422;2022-11-20T03:18:59;100584.63;;;14.51;64.81
76164;BME280;64897;50.816;4.422;2022-11-20T03:21:26;100588.78;;;14.54;64.77
76164;BME280;64897;50.816;4.422;2022-11-20T03:23:54;100589.72;;;14.53;65.07
76164;BME280;64897;50.816;4.422;2022-11-20T03:26:23;100582.84;;;14.52;65.16
76164;BME280;64897;50.816;4.422;2022-11-20T03:28:55;100586.25;;;14.52;64.61
76164;BME280;64897;50.816;4.422;2022-11-20T03:31:26;100585.47;;;14.52;65.09
76164;BME280;64897;50.816;4.422;2022-11-20T03:33:53;100585.47;;;14.52;64.64
76164;BME280;64897;50.816;4.422;2022-11-20T03:36:22;100582.00;;;14.51;64.97
76164;BME280;64897;50.816;4.422;2022-11-20T03:38:49;100580.19;;;14.52;65.02
76164;BME280;64897;50.816;4.422;2022-11-20T03:41:21;100577.69;;;14.50;64.72
76164;BME280;64897;50.816;4.422;2022-11-20T03:43:53;100575.06;;;14.50;64.89
76164;BME280;64897;50.816;4.422;2022-11-20T03:46:20;100571.47;;;14.51;64.71
76164;BME280;64897;50.816;4.422;2022-11-20T03:48:47;100569.78;;;14.50;65.07
76164;BME280;64897;50.816;4.422;2022-11-20T03:53:44;100555.81;;;14.50;64.74
76164;BME280;64897;50.816;4.422;2022-11-20T03:56:12;100549.72;;;14.49;64.65
76164;BME280;64897;50.816;4.422;2022-11-20T03:58:40;100550.56;;;14.50;64.76
76164;BME280;64897;50.816;4.422;2022-11-20T04:01:12;100546.13;;;14.50;64.54
76164;BME280;64897;50.816;4.422;2022-11-20T04:03:40;100543.66;;;14.49;65.12
76164;BME280;64897;50.816;4.422;2022-11-20T04:06:13;100538.38;;;14.49;64.66
76164;BME280;64897;50.816;4.422;2022-11-20T04:08:40;100536.72;;;14.48;64.58
76164;BME280;64897;50.816;4.422;2022-11-20T04:11:16;100530.63;;;14.47;64.98
76164;BME280;64897;50.816;4.422;2022-11-20T04:13:47;100537.56;;;14.48;64.75
76164;BME280;64897;50.816;4.422;2022-11-20T04:16:14;100530.63;;;14.47;64.62
76164;BME280;64897;50.816;4.422;2022-11-20T04:18:41;100526.19;;;14.48;64.75
76164;BME280;64897;50.816;4.422;2022-11-20T04:21:08;100509.25;;;14.31;64.61
76164;BME280;64897;50.816;4.422;2022-11-20T04:23:34;100535.03;;;14.47;64.61
76164;BME280;64897;50.816;4.422;2022-11-20T04:26:11;100539.34;;;14.48;65.00
76164;BME280;64897;50.816;4.422;2022-11-20T04:28:38;100535.88;;;14.47;64.59
76164;BME280;64897;50.816;4.422;2022-11-20T04:31:14;100534.25;;;14.46;64.96
76164;BME280;64897;50.816;4.422;2022-11-20T04:33:41;100529.94;;;14.45;64.89
76164;BME280;64897;50.816;4.422;2022-11-20T04:38:38;100529.09;;;14.45;65.03
76164;BME280;64897;50.816;4.422;2022-11-20T04:41:06;100528.13;;;14.46;64.52
76164;BME280;64897;50.816;4.422;2022-11-20T04:43:33;100530.78;;;14.46;64.44
76164;BME280;64897;50.816;4.422;2022-11-20T04:46:01;100538.66;;;14.46;64.66
76164;BME280;64897;50.816;4.422;2022-11-20T04:48:28;100536.97;;;14.45;64.99
76164;BME280;64897;50.816;4.422;2022-11-20T04:50:56;100535.31;;;14.44;64.69
76164;BME280;64897;50.816;4.422;2022-11-20T04:53:23;100531.72;;;14.45;64.50
76164;BME280;64897;50.816;4.422;2022-11-20T04:55:50;100532.81;;;14.42;64.97
76164;BME280;64897;50.816;4.422;2022-11-20T04:58:17;100540.56;;;14.44;65.01
76164;BME280;64897;50.816;4.422;2022-11-20T05:00:44;100532.69;;;14.44;64.81
76164;BME280;64897;50.816;4.422;2022-11-20T05:03:10;100524.78;;;14.44;64.77
76164;BME280;64897;50.816;4.422;2022-11-20T05:05:37;100520.53;;;14.43;64.78
76164;BME280;64897;50.816;4.422;2022-11-20T05:08:04;100523.16;;;14.43;65.01
76164;BME280;64897;50.816;4.422;2022-11-20T05:10:31;100523.16;;;14.43;64.45
76164;BME280;64897;50.816;4.422;2022-11-20T05:12:57;100528.41;;;14.43;64.53
76164;BME280;64897;50.816;4.422;2022-11-20T05:15:24;100524.94;;;14.42;64.70
76164;BME280;64897;50.816;4.422;2022-11-20T05:17:51;100534.50;;;14.43;64.97
76164;BME280;64897;50.816;4.422;2022-11-20T05:20:19;100528.41;;;14.43;64.69
76164;BME280;64897;50.816;4.422;2022-11-20T05:22:46;100521.47;;;14.42;64.82
76164;BME280;64897;50.816;4.422;2022-11-20T05:25:12;100518.72;;;14.43;65.01
76164;BME280;64897;50.816;4.422;2022-11-20T05:27:39;100521.47;;;14.42;64.61
76164;BME280;64897;50.816;4.422;2022-11-20T05:30:07;100517.06;;;14.42;64.69
76164;BME280;64897;50.816;4.422;2022-11-20T05:32:34;100521.47;;;14.42;65.08
76164;BME280;64897;50.816;4.422;2022-11-20T05:35:00;100516.22;;;14.42;64.66
76164;BME280;64897;50.816;4.422;2022-11-20T05:37:27;100522.44;;;14.41;64.65
76164;BME280;64897;50.816;4.422;2022-11-20T05:39:54;100516.22;;;14.42;64.74
76164;BME280;64897;50.816;4.422;2022-11-20T05:42:20;100511.78;;;14.42;65.17
76164;BME280;64897;50.816;4.422;2022-11-20T05:45:00;100514.53;;;14.41;65.01
76164;BME280;64897;50.816;4.422;2022-11-20T05:47:28;100519.00;;;14.40;64.67
76164;BME280;64897;50.816;4.422;2022-11-20T05:49:57;100514.53;;;14.41;65.17
76164;BME280;64897;50.816;4.422;2022-11-20T05:52:24;100513.59;;;14.42;65.20
76164;BME280;64897;50.816;4.422;2022-11-20T05:54:50;100509.28;;;14.41;65.20
76164;BME280;64897;50.816;4.422;2022-11-20T05:57:17;100510.97;;;14.42;65.22
76164;BME280;64897;50.816;4.422;2022-11-20T05:59:44;100510.97;;;14.42;65.14
76164;BME280;64897;50.816;4.422;2022-11-20T06:02:10;100508.31;;;14.42;64.85
76164;BME280;64897;50.816;4.422;2022-11-20T06:04:37;100504.88;;;14.41;64.77
76164;BME280;64897;50.816;4.422;2022-11-20T06:07:05;100501.28;;;14.42;65.20
76164;BME280;64897;50.816;4.422;2022-11-20T06:09:33;100507.38;;;14.43;65.26
76164;BME280;64897;50.816;4.422;2022-11-20T06:12:00;100501.28;;;14.42;65.10
76164;BME280;64897;50.816;4.422;2022-11-20T06:14:27;100496.13;;;14.41;64.64
76164;BME280;64897;50.816;4.422;2022-11-20T06:16:53;100495.19;;;14.42;64.93
76164;BME280;64897;50.816;4.422;2022-11-20T06:19:20;100490.88;;;14.41;64.83
76164;BME280;64897;50.816;4.422;2022-11-20T06:21:48;100481.09;;;14.43;65.18
76164;BME280;64897;50.816;4.422;2022-11-20T06:24:16;100480.25;;;14.42;65.15
76164;BME280;64897;50.816;4.422;2022-11-20T06:26:43;100476.78;;;14.42;65.21
76164;BME280;64897;50.816;4.422;2022-11-20T06:29:10;100477.72;;;14.41;64.87
76164;BME280;64897;50.816;4.422;2022-11-20T06:31:37;100476.78;;;14.42;65.28
76164;BME280;64897;50.816;4.422;2022-11-20T06:34:07;100478.56;;;14.41;64.80
76164;BME280;64897;50.816;4.422;2022-11-20T06:36:34;100484.66;;;14.42;65.02
76164;BME280;64897;50.816;4.422;2022-11-20T06:39:03;100479.41;;;14.42;64.86
76164;BME280;64897;50.816;4.422;2022-11-20T06:41:30;100478.56;;;14.41;65.23
76164;BME280;64897;50.816;4.422;2022-11-20T06:43:56;100494.34;;;14.41;64.86
76164;BME280;64897;50.816;4.422;2022-11-20T06:46:23;100489.94;;;14.42;64.89
76164;BME280;64897;50.816;4.422;2022-11-20T06:48:50;100500.44;;;14.42;65.27
76164;BME280;64897;50.816;4.422;2022-11-20T06:51:17;100491.88;;;14.40;64.85
76164;BME280;64897;50.816;4.422;2022-11-20T06:53:44;100485.63;;;14.41;64.90
76164;BME280;64897;50.816;4.422;2022-11-20T06:56:11;100492.69;;;14.40;64.85
76164;BME280;64897;50.816;4.422;2022-11-20T06:58:37;100486.59;;;14.40;65.27
76164;BME280;64897;50.816;4.422;2022-11-20T07:01:10;100489.09;;;14.41;64.76
76164;BME280;64897;50.816;4.422;2022-11-20T07:03:37;100487.56;;;14.39;64.71
76164;BME280;64897;50.816;4.422;2022-11-20T07:06:05;100483.13;;;14.39;65.37
76164;BME280;64897;50.816;4.422;2022-11-20T07:08:32;100493.66;;;14.39;65.21
76164;BME280;64897;50.816;4.422;2022-11-20T07:11:00;100490.19;;;14.39;64.95
76164;BME280;64897;50.816;4.422;2022-11-20T07:13:28;100483.97;;;14.40;65.28
76164;BME280;64897;50.816;4.422;2022-11-20T07:15:58;100484.81;;;14.40;65.20
76164;BME280;64897;50.816;4.422;2022-11-20T07:18:25;100484.94;;;14.39;65.01
76164;BME280;64897;50.816;4.422;2022-11-20T07:20:52;100484.09;;;14.38;65.08
76164;BME280;64897;50.816;4.422;2022-11-20T07:23:19;100483.97;;;14.40;65.33
76164;BME280;64897;50.816;4.422;2022-11-20T07:25:46;100486.59;;;14.40;64.79
76164;BME280;64897;50.816;4.422;2022-11-20T07:28:12;100479.69;;;14.39;64.70
76164;BME280;64897;50.816;4.422;2022-11-20T07:30:40;100476.22;;;14.38;65.35
76164;BME280;64897;50.816;4.422;2022-11-20T07:33:06;100483.97;;;14.40;65.02
76164;BME280;64897;50.816;4.422;2022-11-20T07:35:33;100474.28;;;14.40;65.25
76164;BME280;64897;50.816;4.422;2022-11-20T07:38:00;100480.66;;;14.38;65.33
76164;BME280;64897;50.816;4.422;2022-11-20T07:40:26;100475.25;;;14.39;64.90
76164;BME280;64897;50.816;4.422;2022-11-20T07:42:54;100479.69;;;14.39;65.15
76164;BME280;64897;50.816;4.422;2022-11-20T07:45:23;100472.78;;;14.38;65.03
76164;BME280;64897;50.816;4.422;2022-11-20T07:47:51;100475.41;;;14.38;65.27
76164;BME280;64897;50.816;4.422;2022-11-20T07:50:18;100476.34;;;14.37;65.45
76164;BME280;64897;50.816;4.422;2022-11-20T07:52:45;100465.69;;;14.38;65.32
76164;BME280;64897;50.816;4.422;2022-11-20T07:55:12;100468.59;;;14.35;65.00
76164;BME280;64897;50.816;4.422;2022-11-20T07:57:39;100464.16;;;14.36;64.99
76164;BME280;64897;50.816;4.422;2022-11-20T08:00:07;100466.69;;;14.37;65.16
76164;BME280;64897;50.816;4.422;2022-11-20T08:02:40;100457.81;;;14.38;65.19
76164;BME280;64897;50.816;4.422;2022-11-20T08:05:08;100462.38;;;14.36;65.15
76164;BME280;64897;50.816;4.422;2022-11-20T08:07:37;100460.59;;;14.37;65.43
76164;BME280;64897;50.816;4.422;2022-11-20T08:10:04;100456.16;;;14.37;65.09
76164;BME280;64897;50.816;4.422;2022-11-20T08:12:31;100451.75;;;14.38;64.98
76164;BME280;64897;50.816;4.422;2022-11-20T08:15:16;100453.53;;;14.37;65.24
76164;BME280;64897;50.816;4.422;2022-11-20T08:17:43;100450.06;;;14.37;65.52
76164;BME280;64897;50.816;4.422;2022-11-20T08:20:10;100452.00;;;14.35;65.18
76164;BME280;64897;50.816;4.422;2022-11-20T08:22:37;100459.75;;;14.36;65.27
76164;BME280;64897;50.816;4.422;2022-11-20T08:25:04;100456.16;;;14.37;65.18
76164;BME280;64897;50.816;4.422;2022-11-20T08:27:32;100450.91;;;14.37;65.48
76164;BME280;64897;50.816;4.422;2022-11-20T08:29:59;100447.56;;;14.35;65.19
76164;BME280;64897;50.816;4.422;2022-11-20T08:32:26;100444.66;;;14.38;65.05
76164;BME280;64897;50.816;4.422;2022-11-20T08:34:52;100443.97;;;14.36;65.66
76164;BME280;64897;50.816;4.422;2022-11-20T08:37:19;100450.06;;;14.37;65.67
76164;BME280;64897;50.816;4.422;2022-11-20T08:39:46;100450.06;;;14.37;65.68
76164;BME280;64897;50.816;4.422;2022-11-20T08:42:13;100442.31;;;14.35;65.58
76164;BME280;64897;50.816;4.422;2022-11-20T08:44:39;100433.72;;;14.33;65.54
76164;BME280;64897;50.816;4.422;2022-11-20T08:47:06;100438.88;;;14.35;65.65
76164;BME280;64897;50.816;4.422;2022-11-20T08:49:33;100429.03;;;14.37;65.16
76164;BME280;64897;50.816;4.422;2022-11-20T08:52:00;100429.03;;;14.37;65.67
76164;BME280;64897;50.816;4.422;2022-11-20T08:54:27;100437.88;;;14.36;65.22
76164;BME280;64897;50.816;4.422;2022-11-20T08:56:53;100425.72;;;14.35;65.31
76164;BME280;64897;50.816;4.422;2022-11-20T08:59:20;100425.72;;;14.35;65.21
76164;BME280;64897;50.816;4.422;2022-11-20T09:01:47;100430.97;;;14.35;65.53
76164;BME280;64897;50.816;4.422;2022-11-20T09:04:14;100423.91;;;14.35;65.51
76164;BME280;64897;50.816;4.422;2022-11-20T09:06:40;100418.78;;;14.34;65.71
76164;BME280;64897;50.816;4.422;2022-11-20T09:09:07;100386.78;;;14.19;65.61
76164;BME280;64897;50.816;4.422;2022-11-20T09:11:37;100414.09;;;14.37;65.76
76164;BME280;64897;50.816;4.422;2022-11-20T09:14:03;100409.94;;;14.35;65.85
76164;BME280;64897;50.816;4.422;2022-11-20T09:16:30;100407.16;;;14.36;65.88
76164;BME280;64897;50.816;4.422;2022-11-20T09:18:57;100405.50;;;14.35;65.58
76164;BME280;64897;50.816;4.422;2022-11-20T09:21:24;100402.88;;;14.35;65.41
76164;BME280;64897;50.816;4.422;2022-11-20T09:23:51;100394.88;;;14.37;65.41
76164;BME280;64897;50.816;4.422;2022-11-20T09:26:17;100397.34;;;14.38;65.92
76164;BME280;64897;50.816;4.422;2022-11-20T09:28:44;100378.91;;;14.28;65.82
76164;BME280;64897;50.816;4.422;2022-11-20T09:31:37;100383.38;;;14.38;65.41
76164;BME280;64897;50.816;4.422;2022-11-20T09:34:04;100378.13;;;14.38;65.99
76164;BME280;64897;50.816;4.422;2022-11-20T09:36:30;100370.25;;;14.38;65.65
76164;BME280;64897;50.816;4.422;2022-11-20T09:38:57;100365.94;;;14.37;65.49
76164;BME280;64897;50.816;4.422;2022-11-20T09:50:23;100357.91;;;14.38;65.67
76164;BME280;64897;50.816;4.422;2022-11-20T09:55:25;100355.16;;;14.40;65.94
76164;BME280;64897;50.816;4.422;2022-11-20T09:57:52;100357.63;;;14.41;65.49
76164;BME280;64897;50.816;4.422;2022-11-20T10:00:20;100353.47;;;14.39;65.48
76164;BME280;64897;50.816;4.422;2022-11-20T10:03:00;100360.41;;;14.40;65.84
76164;BME280;64897;50.816;4.422;2022-11-20T10:08:25;100357.78;;;14.40;65.82
76164;BME280;64897;50.816;4.422;2022-11-20T10:13:59;100340.34;;;14.39;66.23
76164;BME280;64897;50.816;4.422;2022-11-20T10:19:40;100328.59;;;14.43;65.98
76164;BME280;64897;50.816;4.422;2022-11-20T10:25:05;100328.59;;;14.43;66.64
76164;BME280;64897;50.816;4.422;2022-11-20T10:30:28;100304.78;;;14.44;66.51
76164;BME280;64897;50.816;4.422;2022-11-20T10:33:06;100298.69;;;14.44;66.28
76164;BME280;64897;50.816;4.422;2022-11-20T10:35:54;100289.84;;;14.45;66.37
76164;BME280;64897;50.816;4.422;2022-11-20T10:38:41;100299.50;;;14.44;66.76
76164;BME280;64897;50.816;4.422;2022-11-20T10:41:17;100286.25;;;14.46;66.55
76164;BME280;64897;50.816;4.422;2022-11-20T10:46:44;100281.00;;;14.46;66.62
76164;BME280;64897;50.816;4.422;2022-11-20T10:49:14;100275.72;;;14.46;66.49
76164;BME280;64897;50.816;4.422;2022-11-20T10:51:59;100274.75;;;14.47;66.06
76164;BME280;64897;50.816;4.422;2022-11-20T10:54:36;100270.47;;;14.46;65.98
76164;BME280;64897;50.816;4.422;2022-11-20T11:00:10;100264.22;;;14.47;66.65
76164;BME280;64897;50.816;4.422;2022-11-20T11:02:42;100258.00;;;14.48;66.54
76164;BME280;64897;50.816;4.422;2022-11-20T11:07:59;100263.25;;;14.48;66.28
76164;BME280;64897;50.816;4.422;2022-11-20T11:11:09;100254.13;;;14.52;66.38
76164;BME280;64897;50.816;4.422;2022-11-20T11:13:28;100249.16;;;14.49;66.40
76164;BME280;64897;50.816;4.422;2022-11-20T11:15:57;100256.88;;;14.50;66.49
76164;BME280;64897;50.816;4.422;2022-11-20T11:18:29;100247.22;;;14.51;66.32
76164;BME280;64897;50.816;4.422;2022-11-20T11:20:59;100242.91;;;14.50;66.01
76164;BME280;64897;50.816;4.422;2022-11-20T11:23:36;100238.34;;;14.52;66.37
76164;BME280;64897;50.816;4.422;2022-11-20T11:26:06;100234.75;;;14.53;65.90
76164;BME280;64897;50.816;4.422;2022-11-20T11:28:33;100232.38;;;14.50;66.02
76164;BME280;64897;50.816;4.422;2022-11-20T11:31:00;100210.41;;;14.51;66.34
76164;BME280;64897;50.816;4.422;2022-11-20T11:33:33;100206.81;;;14.52;66.16
76164;BME280;64897;50.816;4.422;2022-11-20T11:36:14;100213.97;;;14.50;66.01
76164;BME280;64897;50.816;4.422;2022-11-20T11:38:43;100202.34;;;14.52;65.87
76164;BME280;64897;50.816;4.422;2022-11-20T11:41:16;100198.91;;;14.52;65.99
76164;BME280;64897;50.816;4.422;2022-11-20T11:43:56;100194.47;;;14.52;66.42
76164;BME280;64897;50.816;4.422;2022-11-20T11:46:56;100175.25;;;14.52;65.88
76164;BME280;64897;50.816;4.422;2022-11-20T11:49:23;100173.28;;;14.54;66.38
76164;BME280;64897;50.816;4.422;2022-11-20T11:52:03;100170.66;;;14.54;65.86
76164;BME280;64897;50.816;4.422;2022-11-20T11:57:23;100156.00;;;14.51;66.33
76164;BME280;64897;50.816;4.422;2022-11-20T12:05:40;100153.94;;;14.55;66.03
76164;BME280;64897;50.816;4.422;2022-11-20T12:11:05;100138.16;;;14.55;65.82
76164;BME280;64897;50.816;4.422;2022-11-20T12:13:58;100139.94;;;14.54;66.14
76164;BME280;64897;50.816;4.422;2022-11-20T12:16:36;100140.91;;;14.53;66.20
76164;BME280;64897;50.816;4.422;2022-11-20T12:19:12;100128.31;;;14.57;66.04
76164;BME280;64897;50.816;4.422;2022-11-20T12:22:12;100130.09;;;14.56;65.90
76164;BME280;64897;50.816;4.422;2022-11-20T12:25:04;100117.91;;;14.55;65.94
76164;BME280;64897;50.816;4.422;2022-11-20T12:30:20;100112.66;;;14.55;65.97
76164;BME280;64897;50.816;4.422;2022-11-20T12:56:17;100042.50;;;14.56;65.79
76164;BME280;64897;50.816;4.422;2022-11-20T13:01:45;100025.22;;;14.53;65.38
76164;BME280;64897;50.816;4.422;2022-11-20T13:07:08;100015.00;;;14.50;65.56
76164;BME280;64897;50.816;4.422;2022-11-20T13:09:43;100019.13;;;14.53;65.98
76164;BME280;64897;50.816;4.422;2022-11-20T13:12:16;100005.31;;;14.51;66.09
76164;BME280;64897;50.816;4.422;2022-11-20T13:17:19;100007.78;;;14.52;66.04
76164;BME280;64897;50.816;4.422;2022-11-20T13:19:58;100006.13;;;14.51;66.09
76164;BME280;64897;50.816;4.422;2022-11-20T13:22:27;99994.78;;;14.51;65.59
76164;BME280;64897;50.816;4.422;2022-11-20T13:24:54;99984.41;;;14.49;65.73
76164;BME280;64897;50.816;4.422;2022-11-20T13:27:23;99982.59;;;14.50;65.65
76164;BME280;64897;50.816;4.422;2022-11-20T13:30:03;99977.88;;;14.53;65.51
76164;BME280;64897;50.816;4.422;2022-11-20T13:32:54;99973.59;;;14.52;65.94
76164;BME280;64897;50.816;4.422;2022-11-20T13:35:35;99971.78;;;14.53;65.70
76164;BME280;64897;50.816;4.422;2022-11-20T13:38:04;99964.91;;;14.52;66.09
76164;BME280;64897;50.816;4.422;2022-11-20T13:40:32;99956.03;;;14.53;65.63
76164;BME280;64897;50.816;4.422;2022-11-20T13:43:15;99949.94;;;14.52;65.75
76164;BME280;64897;50.816;4.422;2022-11-20T13:46:01;99942.75;;;14.54;65.93
76164;BME280;64897;50.816;4.422;2022-11-20T13:48:42;99941.25;;;14.52;66.10
76164;BME280;64897;50.816;4.422;2022-11-20T13:54:07;99931.09;;;14.57;65.59
76164;BME280;64897;50.816;4.422;2022-11-20T14:02:22;99916.44;;;14.54;65.43
76164;BME280;64897;50.816;4.422;2022-11-20T14:04:52;99915.63;;;14.54;65.73
76164;BME280;64897;50.816;4.422;2022-11-20T14:07:21;99922.38;;;14.56;65.62
76164;BME280;64897;50.816;4.422;2022-11-20T14:09:55;99917.41;;;14.53;65.36
76164;BME280;64897;50.816;4.422;2022-11-20T14:12:27;99916.28;;;14.56;65.55
76164;BME280;64897;50.816;4.422;2022-11-20T14:14:54;99906.75;;;14.55;65.33
76164;BME280;64897;50.816;4.422;2022-11-20T14:19:52;99901.50;;;14.55;65.43
76164;BME280;64897;50.816;4.422;2022-11-20T14:22:20;99898.19;;;14.53;65.44
76164;BME280;64897;50.816;4.422;2022-11-20T14:25:00;99889.31;;;14.54;65.76
76164;BME280;64897;50.816;4.422;2022-11-20T14:27:27;99864.38;;;14.40;65.12
76164;BME280;64897;50.816;4.422;2022-11-20T14:29:54;99890.97;;;14.55;65.65
76164;BME280;64897;50.816;4.422;2022-11-20T14:32:24;99883.22;;;14.53;65.56
76164;BME280;64897;50.816;4.422;2022-11-20T14:34:54;99883.22;;;14.53;65.21
76164;BME280;64897;50.816;4.422;2022-11-20T14:37:24;99887.53;;;14.54;65.56
76164;BME280;64897;50.816;4.422;2022-11-20T14:39:54;99883.22;;;14.53;65.67
76164;BME280;64897;50.816;4.422;2022-11-20T14:42:23;99882.94;;;14.56;65.55
76164;BME280;64897;50.816;4.422;2022-11-20T14:44:52;99880.47;;;14.55;65.12
76164;BME280;64897;50.816;4.422;2022-11-20T14:47:27;99877.13;;;14.53;65.40
76164;BME280;64897;50.816;4.422;2022-11-20T14:49:56;99869.94;;;14.55;65.05